Time;durP1;ratioP1;P1;durP2;ratioP2;P2;SDS_P1;SDS_P2;PMS_P1;PMS_P2;Temp;Humidity;BMP_temperature;BMP_pressure;BME280_temperature;BME280_humidity;BME280_pressure;Samples;Min_cycle;Max_cycle;Signal;HPM_P1;HPM_P2
2022/09/17 00:02:25;;;;;;;1.47;1.30;;;15.50;55.40;;;;;;5050425;28;20464;-85
2022/09/17 00:04:52;;;;;;;3.50;2.10;;;15.50;55.50;;;;;;5026769;28;21257;-87
2022/09/17 00:07:19;;;;;;;1.30;1.20;;;15.50;55.40;;;;;;5032147;28;20448;-87
2022/09/17 00:09:46;;;;;;;5.03;1.37;;;15.60;55.90;;;;;;5007605;28;20483;-88
2022/09/17 00:12:13;;;;;;;2.47;1.20;;;15.70;55.70;;;;;;5048476;28;20865;-87
2022/09/17 00:14:41;;;;;;;1.60;1.20;;;15.90;55.30;;;;;;5034555;28;20465;-87
2022/09/17 00:17:08;;;;;;;4.10;1.53;;;15.90;55.40;;;;;;5036819;28;20450;-88
2022/09/17 00:19:35;;;;;;;1.47;1.20;;;15.80;55.30;;;;;;5021861;28;20454;-87
2022/09/17 00:22:02;;;;;;;2.60;1.10;;;15.70;55.40;;;;;;5011548;28;20469;-87
2022/09/17 00:24:29;;;;;;;1.60;1.40;;;15.60;55.10;;;;;;5035745;28;20449;-88
2022/09/17 00:26:57;;;;;;;3.20;1.40;;;15.60;55.30;;;;;;5052321;28;20449;-87
2022/09/17 00:29:24;;;;;;;5.33;1.40;;;15.60;55.50;;;;;;5018135;28;20487;-87
2022/09/17 00:31:52;;;;;;;2.43;1.50;;;15.60;55.50;;;;;;5010760;28;20474;-87
2022/09/17 00:34:19;;;;;;;2.80;1.13;;;15.60;55.50;;;;;;5015168;28;20558;-88
2022/09/17 00:36:46;;;;;;;5.37;1.40;;;15.50;55.70;;;;;;5052956;28;20448;-88
2022/09/17 00:39:15;;;;;;;6.30;1.50;;;15.20;56.10;;;;;;5032863;28;20442;-88
2022/09/17 00:41:42;;;;;;;3.80;1.80;;;15.20;56.20;;;;;;5043763;28;20489;-87
2022/09/17 00:44:49;;;;;;;3.43;1.20;;;15.30;56.10;;;;;;5031393;28;20448;-87
2022/09/17 00:47:25;;;;;;;5.83;1.40;;;15.40;56.10;;;;;;5037358;28;20452;-88
2022/09/17 00:49:56;;;;;;;2.13;1.23;;;15.60;56.30;;;;;;5032374;28;20453;-87
2022/09/17 00:52:28;;;;;;;2.33;1.40;;;15.60;55.90;;;;;;5050417;28;20559;-87
2022/09/17 00:55:00;;;;;;;2.17;1.80;;;15.50;56.00;;;;;;5035161;28;20441;-87
2022/09/17 00:57:28;;;;;;;2.93;1.63;;;15.60;55.90;;;;;;5025015;28;20449;-87
2022/09/17 00:59:55;;;;;;;1.87;1.67;;;15.50;55.60;;;;;;5035055;28;20976;-88
2022/09/17 01:02:23;;;;;;;1.60;1.30;;;15.60;55.50;;;;;;5015569;28;20812;-89
2022/09/17 01:04:50;;;;;;;1.80;1.33;;;15.30;56.00;;;;;;5049684;28;20480;-87
2022/09/17 01:07:31;;;;;;;2.00;1.80;;;15.30;56.00;;;;;;5050608;28;20507;-87
2022/09/17 01:10:03;;;;;;;2.20;1.50;;;15.40;55.40;;;;;;5036876;28;20445;-87
2022/09/17 01:12:50;;;;;;;5.97;2.13;;;15.30;55.30;;;;;;5021897;28;20819;-88
2022/09/17 01:15:26;;;;;;;1.50;1.40;;;15.10;55.50;;;;;;5031723;28;21006;-87
2022/09/17 01:18:21;;;;;;;2.10;1.73;;;15.10;55.70;;;;;;5033840;28;20449;-87
2022/09/17 01:21:30;;;;;;;2.17;1.17;;;15.20;55.60;;;;;;5050699;28;20488;-89
2022/09/17 01:24:39;;;;;;;4.13;1.50;;;15.20;55.50;;;;;;5038821;28;20456;-87
2022/09/17 01:27:28;;;;;;;2.80;1.50;;;15.00;56.20;;;;;;5035040;28;20961;-88
2022/09/17 01:30:22;;;;;;;5.53;1.90;;;15.10;55.90;;;;;;5052969;28;20460;-88
2022/09/17 01:32:58;;;;;;;3.33;1.40;;;15.10;55.90;;;;;;5023823;28;20544;-87
2022/09/17 01:35:34;;;;;;;6.40;1.43;;;15.20;56.00;;;;;;5031712;28;20492;-88
2022/09/17 01:38:09;;;;;;;7.17;1.83;;;15.00;56.10;;;;;;5036121;28;20468;-87
2022/09/17 01:40:44;;;;;;;4.50;1.77;;;15.00;56.10;;;;;;5040707;28;20637;-88
2022/09/17 01:43:21;;;;;;;2.60;1.40;;;15.10;56.00;;;;;;5035579;28;20471;-87
2022/09/17 01:45:51;;;;;;;2.93;1.30;;;15.20;55.50;;;;;;5037055;28;20472;-88
2022/09/17 01:48:20;;;;;;;3.90;1.97;;;15.20;55.20;;;;;;5034122;28;20444;-87
2022/09/17 01:50:52;;;;;;;5.27;1.60;;;15.20;55.30;;;;;;5037866;28;20463;-87
2022/09/17 01:53:22;;;;;;;1.40;1.13;;;15.10;55.10;;;;;;5051997;28;20437;-87
2022/09/17 01:55:51;;;;;;;3.10;1.90;;;15.10;55.50;;;;;;5026797;28;20453;-87
2022/09/17 01:58:23;;;;;;;6.43;1.90;;;15.10;56.00;;;;;;5038203;28;20673;-90
2022/09/17 02:00:54;;;;;;;2.23;1.40;;;15.10;55.60;;;;;;5046144;28;20469;-88
2022/09/17 02:03:29;;;;;;;3.93;1.50;;;15.10;55.90;;;;;;5027313;28;20461;-88
2022/09/17 02:06:00;;;;;;;4.70;1.67;;;15.20;55.80;;;;;;5054260;28;20546;-88
2022/09/17 02:08:34;;;;;;;8.93;1.50;;;15.10;55.60;;;;;;5033094;28;20442;-88
2022/09/17 02:11:06;;;;;;;1.80;1.33;;;15.00;55.60;;;;;;5022174;28;20470;-87
2022/09/17 02:13:37;;;;;;;5.43;1.50;;;15.00;55.70;;;;;;5036062;28;20453;-87
2022/09/17 02:16:11;;;;;;;2.03;1.20;;;15.10;55.70;;;;;;5036675;28;20454;-88
2022/09/17 02:18:45;;;;;;;8.30;1.60;;;15.40;55.70;;;;;;5034212;28;20453;-87
2022/09/17 02:21:17;;;;;;;4.73;1.50;;;15.50;55.10;;;;;;5041031;28;21013;-87
2022/09/17 02:23:50;;;;;;;1.70;1.50;;;15.60;54.90;;;;;;5035791;28;20548;-87
2022/09/17 02:26:20;;;;;;;13.17;1.80;;;15.60;54.30;;;;;;5035439;28;20469;-88
2022/09/17 02:28:51;;;;;;;3.00;1.17;;;15.50;54.60;;;;;;5045027;28;20456;-87
2022/09/17 02:31:18;;;;;;;2.67;1.33;;;15.50;55.00;;;;;;5034999;28;20513;-88
2022/09/17 02:33:50;;;;;;;2.80;1.10;;;15.50;55.00;;;;;;5022703;28;20460;-88
2022/09/17 02:36:17;;;;;;;3.53;1.23;;;15.60;55.30;;;;;;5035869;28;20456;-85
2022/09/17 02:38:45;;;;;;;1.83;1.20;;;15.60;54.70;;;;;;5053479;28;20456;-87
2022/09/17 02:41:17;;;;;;;5.73;1.60;;;15.30;55.00;;;;;;5039530;28;21081;-87
2022/09/17 02:43:55;;;;;;;7.13;1.50;;;15.20;55.20;;;;;;5056292;28;21016;-87
2022/09/17 02:46:36;;;;;;;3.37;1.50;;;15.20;55.60;;;;;;5027397;28;20488;-89
2022/09/17 02:49:20;;;;;;;3.00;1.30;;;15.30;55.30;;;;;;5046664;28;20476;-87
2022/09/17 02:51:58;;;;;;;5.23;1.83;;;15.10;56.20;;;;;;5056420;28;20496;-88
2022/09/17 02:54:29;;;;;;;2.37;1.57;;;14.70;56.60;;;;;;5052996;28;20448;-87
2022/09/17 02:57:04;;;;;;;6.47;2.03;;;14.50;56.70;;;;;;5030773;28;20469;-87
2022/09/17 02:59:40;;;;;;;8.63;1.60;;;14.60;57.20;;;;;;5052223;28;20467;-88
2022/09/17 03:02:12;;;;;;;2.80;1.60;;;14.70;57.20;;;;;;5053712;28;20544;-88
2022/09/17 03:04:42;;;;;;;2.10;1.53;;;14.60;57.00;;;;;;5036241;28;20472;-87
2022/09/17 03:07:11;;;;;;;3.70;1.97;;;14.50;56.80;;;;;;5054322;28;20462;-87
2022/09/17 03:09:40;;;;;;;2.47;1.70;;;14.60;57.50;;;;;;5050203;28;20544;-88
2022/09/17 03:12:07;;;;;;;3.10;1.53;;;14.90;57.50;;;;;;5052962;28;20478;-89
2022/09/17 03:14:34;;;;;;;2.80;1.63;;;14.60;56.50;;;;;;5034043;28;20529;-88
2022/09/17 03:17:01;;;;;;;5.07;1.53;;;14.70;57.00;;;;;;5054895;28;21215;-88
2022/09/17 03:19:28;;;;;;;5.13;1.57;;;14.70;56.50;;;;;;5022347;28;20464;-88
2022/09/17 03:21:56;;;;;;;4.63;1.60;;;14.60;56.80;;;;;;5026592;28;20477;-87
2022/09/17 03:24:23;;;;;;;5.73;1.60;;;14.70;56.80;;;;;;5035393;28;20448;-87
2022/09/17 03:26:51;;;;;;;4.57;2.20;;;14.70;56.70;;;;;;5034477;28;20465;-88
2022/09/17 03:29:18;;;;;;;6.03;3.13;;;14.60;56.70;;;;;;5035296;28;20449;-89
2022/09/17 03:31:45;;;;;;;8.47;2.07;;;14.60;57.10;;;;;;5046698;28;20469;-88
2022/09/17 03:34:12;;;;;;;5.20;1.87;;;14.50;57.10;;;;;;5054480;28;20780;-88
2022/09/17 03:36:39;;;;;;;5.60;1.60;;;14.50;57.80;;;;;;5054962;28;20452;-88
2022/09/17 03:39:07;;;;;;;6.90;1.80;;;14.60;56.80;;;;;;5050926;28;20465;-87
2022/09/17 03:41:34;;;;;;;2.57;1.83;;;14.70;57.10;;;;;;5015296;28;20494;-89
2022/09/17 03:44:02;;;;;;;6.80;2.20;;;14.60;56.80;;;;;;5052500;28;20497;-87
2022/09/17 03:46:29;;;;;;;1.43;1.30;;;14.70;56.80;;;;;;5034102;28;20458;-90
2022/09/17 03:48:56;;;;;;;1.60;1.50;;;14.50;56.80;;;;;;5053904;28;20463;-88
2022/09/17 03:51:23;;;;;;;3.83;1.70;;;14.40;57.30;;;;;;5033253;28;20463;-88
2022/09/17 03:53:50;;;;;;;1.97;1.70;;;14.50;57.50;;;;;;5034925;28;20457;-89
2022/09/17 03:56:18;;;;;;;7.00;3.20;;;14.50;57.40;;;;;;5039276;28;20452;-89
2022/09/17 03:58:45;;;;;;;2.97;1.87;;;14.50;57.60;;;;;;5050089;28;20465;-87
2022/09/17 04:01:12;;;;;;;5.63;1.87;;;14.40;57.80;;;;;;5045272;28;20480;-88
2022/09/17 04:03:39;;;;;;;5.10;2.00;;;14.40;58.10;;;;;;5026457;28;20462;-88
2022/09/17 04:06:06;;;;;;;3.53;1.90;;;14.60;58.70;;;;;;5037485;28;20476;-88
2022/09/17 04:08:34;;;;;;;3.97;1.53;;;14.50;58.20;;;;;;5022043;28;20453;-88
2022/09/17 04:11:01;;;;;;;2.43;1.80;;;14.60;58.50;;;;;;5043832;28;20477;-87
2022/09/17 04:13:29;;;;;;;2.50;2.17;;;14.80;58.20;;;;;;5038994;28;20448;-87
2022/09/17 04:15:56;;;;;;;3.67;1.63;;;15.00;58.20;;;;;;5051304;28;20449;-87
2022/09/17 04:18:23;;;;;;;3.63;2.00;;;15.00;58.60;;;;;;5034954;28;20448;-87
2022/09/17 04:20:50;;;;;;;2.23;1.70;;;14.80;57.50;;;;;;5031838;28;20487;-88
2022/09/17 04:23:17;;;;;;;2.37;2.07;;;14.90;58.30;;;;;;5032939;28;20964;-89
2022/09/17 04:25:44;;;;;;;6.77;1.90;;;14.70;59.20;;;;;;5017378;28;20456;-87
2022/09/17 04:28:11;;;;;;;3.33;1.97;;;14.80;59.30;;;;;;5043102;28;20497;-88
2022/09/17 04:30:40;;;;;;;3.00;1.77;;;14.80;59.20;;;;;;5025839;28;20484;-87
2022/09/17 04:33:07;;;;;;;2.80;1.83;;;14.60;58.80;;;;;;5032205;28;20441;-86
2022/09/17 04:35:34;;;;;;;2.60;2.07;;;14.70;59.40;;;;;;5029466;28;20461;-87
2022/09/17 04:38:01;;;;;;;6.23;2.60;;;14.60;59.50;;;;;;5051043;28;20824;-87
2022/09/17 04:40:28;;;;;;;4.40;1.97;;;14.80;60.30;;;;;;5050429;28;20482;-86
2022/09/17 04:42:58;;;;;;;5.90;2.00;;;14.80;59.70;;;;;;5051502;28;20484;-88
2022/09/17 04:45:26;;;;;;;3.20;1.70;;;15.00;59.50;;;;;;5015536;28;20457;-86
2022/09/17 04:47:54;;;;;;;3.10;2.03;;;14.90;59.00;;;;;;5042079;28;20473;-88
2022/09/17 04:50:22;;;;;;;3.57;1.90;;;14.80;59.00;;;;;;5048274;28;20965;-86
2022/09/17 04:52:49;;;;;;;4.33;1.90;;;14.90;59.60;;;;;;5032527;28;21003;-86
2022/09/17 04:55:16;;;;;;;2.70;2.10;;;14.90;59.70;;;;;;5031453;28;20515;-85
2022/09/17 04:57:46;;;;;;;7.47;2.20;;;14.70;59.90;;;;;;5017561;28;20458;-88
2022/09/17 05:00:14;;;;;;;3.93;2.20;;;14.60;60.20;;;;;;5051076;28;20534;-86
2022/09/17 05:02:42;;;;;;;2.17;2.07;;;14.60;59.80;;;;;;5049170;28;20469;-85
2022/09/17 05:05:10;;;;;;;6.77;2.43;;;14.60;60.10;;;;;;5049775;28;20479;-87
2022/09/17 05:07:38;;;;;;;4.13;2.37;;;14.60;60.50;;;;;;5051335;28;20476;-87
2022/09/17 05:10:07;;;;;;;4.10;2.57;;;14.50;61.20;;;;;;5042448;28;20468;-87
2022/09/17 05:12:34;;;;;;;4.03;2.80;;;14.50;60.90;;;;;;5015412;28;20949;-87
2022/09/17 05:15:01;;;;;;;2.10;1.97;;;14.20;61.40;;;;;;5032301;28;20464;-88
2022/09/17 05:17:28;;;;;;;9.70;2.17;;;14.20;62.00;;;;;;5037848;28;20441;-87
2022/09/17 05:19:55;;;;;;;3.53;2.13;;;14.20;62.10;;;;;;5057666;28;20445;-86
2022/09/17 05:22:23;;;;;;;3.63;2.40;;;14.40;61.60;;;;;;5038303;28;20442;-88
2022/09/17 05:24:50;;;;;;;3.67;2.33;;;14.50;61.30;;;;;;5053224;28;20868;-87
2022/09/17 05:27:17;;;;;;;6.67;2.13;;;14.40;61.70;;;;;;5030287;28;21015;-87
2022/09/17 05:29:44;;;;;;;2.50;2.30;;;14.30;62.30;;;;;;5030597;28;20541;-87
2022/09/17 05:32:11;;;;;;;5.27;2.07;;;14.10;61.70;;;;;;5038286;28;20566;-87
2022/09/17 05:34:39;;;;;;;9.47;1.60;;;14.10;63.10;;;;;;5043897;28;20451;-87
2022/09/17 05:37:06;;;;;;;3.93;1.63;;;14.10;63.30;;;;;;5056181;28;20514;-87
2022/09/17 05:39:34;;;;;;;2.80;1.73;;;14.00;63.30;;;;;;5036155;28;20445;-87
2022/09/17 05:42:01;;;;;;;3.47;2.27;;;14.10;62.90;;;;;;5041853;28;20484;-87
2022/09/17 05:44:28;;;;;;;2.47;1.80;;;14.10;63.10;;;;;;5028628;28;20925;-85
2022/09/17 05:46:55;;;;;;;2.90;2.03;;;14.20;63.00;;;;;;5041855;28;20468;-87
2022/09/17 05:49:22;;;;;;;2.40;2.10;;;14.30;62.50;;;;;;5031979;28;20975;-89
2022/09/17 05:51:51;;;;;;;1.90;1.53;;;14.50;62.30;;;;;;5050057;28;20469;-87
2022/09/17 05:54:17;;;;;;;2.20;1.93;;;14.50;61.80;;;;;;5025767;28;20456;-87
2022/09/17 05:56:46;;;;;;;2.40;2.17;;;14.50;61.30;;;;;;5037066;28;20451;-86
2022/09/17 05:59:14;;;;;;;4.03;1.60;;;14.40;61.90;;;;;;5028257;28;20452;-86
2022/09/17 06:01:41;;;;;;;3.40;1.97;;;14.40;61.90;;;;;;5028020;28;20568;-87
2022/09/17 06:04:09;;;;;;;2.50;1.97;;;14.40;62.00;;;;;;5020966;28;20887;-86
2022/09/17 06:06:37;;;;;;;3.00;2.10;;;14.50;62.10;;;;;;5036237;28;20477;-88
2022/09/17 06:09:05;;;;;;;3.03;2.00;;;14.50;62.30;;;;;;5036511;28;20812;-87
2022/09/17 06:11:32;;;;;;;8.00;2.27;;;14.50;61.90;;;;;;5032312;28;20480;-87
2022/09/17 06:14:00;;;;;;;2.60;2.40;;;14.60;61.60;;;;;;5026457;28;20448;-88
2022/09/17 06:16:27;;;;;;;5.23;1.83;;;14.70;61.60;;;;;;5031662;28;20525;-87
2022/09/17 06:18:54;;;;;;;2.83;1.87;;;14.80;61.50;;;;;;5027972;28;20471;-86
2022/09/17 06:21:21;;;;;;;4.30;1.80;;;14.80;61.20;;;;;;5036627;28;20498;-85
2022/09/17 06:23:49;;;;;;;6.23;2.43;;;14.60;61.40;;;;;;5022416;28;20977;-87
2022/09/17 06:26:16;;;;;;;2.53;2.00;;;14.50;61.60;;;;;;5050304;28;20647;-87
2022/09/17 06:28:43;;;;;;;2.33;2.03;;;14.40;61.90;;;;;;5040435;28;20940;-87
2022/09/17 06:31:12;;;;;;;3.73;2.50;;;14.50;62.00;;;;;;5053390;28;20461;-87
2022/09/17 06:33:40;;;;;;;2.67;2.20;;;14.60;62.00;;;;;;5016060;28;20449;-89
2022/09/17 06:36:09;;;;;;;2.67;2.33;;;14.60;61.80;;;;;;5048777;28;20453;-88
2022/09/17 06:38:36;;;;;;;2.57;2.20;;;14.40;61.20;;;;;;5051397;28;20437;-86
2022/09/17 06:41:04;;;;;;;5.20;1.93;;;14.60;62.10;;;;;;5032010;28;20476;-87
2022/09/17 06:43:31;;;;;;;4.30;2.27;;;14.50;61.80;;;;;;5023679;28;20444;-87
2022/09/17 06:46:00;;;;;;;2.97;2.70;;;14.50;62.10;;;;;;5048798;28;20458;-86
2022/09/17 06:48:29;;;;;;;4.70;2.63;;;14.40;62.50;;;;;;5050694;28;20485;-86
2022/09/17 06:51:01;;;;;;;3.40;2.47;;;14.40;62.00;;;;;;5042081;28;20469;-87
2022/09/17 06:53:29;;;;;;;4.43;3.00;;;14.40;62.40;;;;;;5050321;28;20446;-86
2022/09/17 06:55:57;;;;;;;4.07;2.23;;;14.60;61.90;;;;;;5030465;28;20540;-87
2022/09/17 06:58:24;;;;;;;3.37;2.83;;;14.60;62.00;;;;;;5029681;28;20515;-87
2022/09/17 07:00:51;;;;;;;2.80;2.60;;;14.70;62.00;;;;;;5030725;28;20860;-87
2022/09/17 07:03:19;;;;;;;4.63;2.30;;;14.60;62.00;;;;;;5039317;28;20450;-86
2022/09/17 07:05:50;;;;;;;3.93;2.80;;;14.80;61.20;;;;;;5015845;28;20512;-86
2022/09/17 07:08:17;;;;;;;5.63;3.00;;;14.90;61.00;;;;;;5025995;28;20461;-84
2022/09/17 07:10:44;;;;;;;4.67;2.40;;;14.80;60.90;;;;;;5031199;28;21023;-86
2022/09/17 07:13:11;;;;;;;4.53;2.77;;;14.90;61.40;;;;;;5041019;28;20963;-88
2022/09/17 07:15:38;;;;;;;4.87;2.40;;;14.90;61.10;;;;;;5050495;28;20457;-87
2022/09/17 07:18:08;;;;;;;4.83;2.40;;;14.80;61.20;;;;;;5049363;28;20544;-88
2022/09/17 07:20:35;;;;;;;3.37;2.77;;;15.00;61.30;;;;;;5047849;28;21215;-87
2022/09/17 07:23:03;;;;;;;3.10;2.70;;;15.10;60.90;;;;;;5034724;28;20450;-88
2022/09/17 07:25:30;;;;;;;5.73;2.43;;;15.20;60.60;;;;;;5039647;28;20457;-88
2022/09/17 07:27:58;;;;;;;3.43;2.50;;;15.30;60.90;;;;;;5028197;28;20519;-87
2022/09/17 07:30:25;;;;;;;4.90;2.30;;;15.40;60.30;;;;;;5033228;28;20842;-88
2022/09/17 07:32:52;;;;;;;5.50;2.80;;;15.30;59.80;;;;;;5015608;28;20453;-86
2022/09/17 07:35:19;;;;;;;4.60;2.80;;;15.40;60.30;;;;;;5033609;28;20460;-87
2022/09/17 07:37:46;;;;;;;3.70;2.70;;;15.50;60.00;;;;;;5015839;28;20442;-87
2022/09/17 07:40:15;;;;;;;3.93;2.23;;;15.40;59.80;;;;;;5049684;28;20482;-87
2022/09/17 07:42:42;;;;;;;3.20;2.20;;;15.40;59.90;;;;;;5050289;28;20465;-87
2022/09/17 07:45:09;;;;;;;6.53;2.90;;;15.50;59.80;;;;;;5031901;28;20968;-88
2022/09/17 07:47:40;;;;;;;7.70;2.77;;;15.60;59.40;;;;;;5048197;28;20480;-87
2022/09/17 07:50:08;;;;;;;10.57;3.10;;;15.70;59.30;;;;;;5050640;28;20483;-88
2022/09/17 07:52:35;;;;;;;4.47;2.43;;;15.70;59.30;;;;;;5031313;28;20496;-89
2022/09/17 07:55:02;;;;;;;5.30;3.07;;;15.60;60.00;;;;;;5035647;28;21044;-86
2022/09/17 07:57:30;;;;;;;2.67;2.40;;;15.30;59.90;;;;;;5031261;28;20464;-86
2022/09/17 07:59:57;;;;;;;7.10;3.23;;;15.20;59.70;;;;;;5040654;28;20464;-86
2022/09/17 08:02:24;;;;;;;5.17;3.10;;;15.20;60.90;;;;;;5049158;28;21025;-86
2022/09/17 08:04:52;;;;;;;3.20;2.90;;;15.10;60.90;;;;;;5035230;28;20460;-87
2022/09/17 08:07:18;;;;;;;3.53;3.20;;;15.10;60.80;;;;;;5049496;28;20471;-86
2022/09/17 08:09:45;;;;;;;5.60;4.10;;;15.30;60.70;;;;;;5032673;28;21009;-86
2022/09/17 08:12:12;;;;;;;6.00;3.27;;;15.40;60.00;;;;;;5032971;28;20477;-87
2022/09/17 08:14:41;;;;;;;5.73;3.53;;;15.30;60.40;;;;;;5033979;28;20450;-87
2022/09/17 08:17:08;;;;;;;4.37;3.27;;;15.50;60.10;;;;;;5038580;28;20972;-88
2022/09/17 08:19:35;;;;;;;5.77;3.40;;;15.50;60.40;;;;;;5047447;28;20455;-86
2022/09/17 08:22:02;;;;;;;5.40;3.80;;;15.60;59.90;;;;;;5018033;28;20494;-88
2022/09/17 08:24:29;;;;;;;5.60;3.53;;;15.70;60.10;;;;;;5022679;28;20457;-87
2022/09/17 08:26:57;;;;;;;6.10;3.70;;;15.80;59.20;;;;;;5033968;28;20444;-88
2022/09/17 08:29:24;;;;;;;5.00;3.47;;;15.90;59.20;;;;;;5006271;28;20457;-88
2022/09/17 08:31:52;;;;;;;7.20;3.50;;;15.90;59.40;;;;;;5032251;28;20469;-88
2022/09/17 08:34:19;;;;;;;8.50;3.80;;;16.10;59.60;;;;;;5030609;28;20445;-88
2022/09/17 08:36:46;;;;;;;3.40;3.10;;;16.10;59.40;;;;;;5049826;28;20444;-88
2022/09/17 08:39:13;;;;;;;5.57;3.43;;;16.20;58.90;;;;;;5031549;28;20445;-87
2022/09/17 08:41:55;;;;;;;4.80;3.60;;;16.30;58.20;;;;;;5032670;28;20504;-88
2022/09/17 08:44:26;;;;;;;5.73;3.73;;;16.30;58.20;;;;;;5015504;28;20456;-88
2022/09/17 08:47:00;;;;;;;15.73;3.70;;;16.50;58.10;;;;;;5035296;28;20829;-88
2022/09/17 08:49:37;;;;;;;7.93;3.37;;;16.50;57.40;;;;;;5031147;28;20522;-86
2022/09/17 08:52:36;;;;;;;4.80;3.70;;;16.30;57.30;;;;;;5003699;28;20471;-88
2022/09/17 08:55:15;;;;;;;11.30;3.70;;;16.30;58.80;;;;;;4991943;28;20456;-88
2022/09/17 08:57:50;;;;;;;7.97;3.30;;;16.40;57.40;;;;;;5019859;28;20964;-89
2022/09/17 09:00:19;;;;;;;7.93;4.07;;;16.50;56.90;;;;;;5024095;28;20472;-88
2022/09/17 09:03:14;;;;;;;6.00;3.70;;;16.70;56.80;;;;;;5029579;28;20463;-88
2022/09/17 09:05:44;;;;;;;8.73;3.73;;;17.00;56.30;;;;;;5030022;28;20448;-88
2022/09/17 09:08:19;;;;;;;10.07;3.40;;;16.60;54.70;;;;;;5051832;28;20552;-87
2022/09/17 09:10:51;;;;;;;3.40;2.60;;;16.40;55.40;;;;;;5040512;28;20561;-88
2022/09/17 09:13:21;;;;;;;11.03;3.80;;;16.30;55.00;;;;;;5016031;28;20454;-88
2022/09/17 09:15:54;;;;;;;16.63;3.93;;;16.00;56.00;;;;;;5048309;28;20456;-88
2022/09/17 09:18:25;;;;;;;7.40;4.40;;;16.30;56.60;;;;;;5048575;28;20524;-88
2022/09/17 09:20:54;;;;;;;7.90;3.00;;;16.40;56.40;;;;;;5031607;28;20979;-88
2022/09/17 09:23:30;;;;;;;9.30;5.30;;;16.30;55.00;;;;;;5041600;28;20473;-86
2022/09/17 09:26:10;;;;;;;7.97;3.90;;;16.40;55.80;;;;;;5036319;28;20463;-89
2022/09/17 09:28:59;;;;;;;8.60;6.07;;;16.40;55.30;;;;;;5048232;28;20458;-87
2022/09/17 09:31:51;;;;;;;6.27;3.60;;;16.70;56.60;;;;;;5035128;28;20510;-88
2022/09/17 09:34:20;;;;;;;6.07;4.23;;;17.20;55.30;;;;;;5023435;28;20441;-88
2022/09/17 09:36:48;;;;;;;3.17;2.87;;;17.30;52.80;;;;;;5024957;28;20442;-88
2022/09/17 09:39:22;;;;;;;7.10;3.67;;;17.00;54.60;;;;;;5039524;28;20445;-88
2022/09/17 09:41:54;;;;;;;8.57;2.90;;;16.80;54.90;;;;;;5025057;28;20618;-87
2022/09/17 09:44:23;;;;;;;5.50;3.23;;;16.20;57.70;;;;;;5030200;28;20941;-87
2022/09/17 09:47:01;;;;;;;3.60;2.63;;;16.00;57.00;;;;;;5018215;28;20449;-88
2022/09/17 09:49:47;;;;;;;3.73;2.73;;;16.00;58.70;;;;;;5016868;28;20464;-87
2022/09/17 09:52:28;;;;;;;5.27;3.80;;;15.90;58.90;;;;;;5048765;28;20473;-86
2022/09/17 09:55:06;;;;;;;5.03;3.13;;;16.10;59.20;;;;;;5050859;28;20441;-87
2022/09/17 09:57:43;;;;;;;7.40;2.83;;;16.50;59.50;;;;;;5049777;28;20543;-87
2022/09/17 10:00:25;;;;;;;7.40;3.60;;;16.80;58.80;;;;;;5030538;28;20460;-86
2022/09/17 10:02:57;;;;;;;10.17;4.13;;;17.10;59.00;;;;;;5016958;28;20457;-87
2022/09/17 10:05:25;;;;;;;11.10;4.33;;;17.30;59.10;;;;;;5012006;28;20460;-87
2022/09/17 10:07:53;;;;;;;5.40;4.80;;;17.10;59.70;;;;;;5033692;28;20619;-87
2022/09/17 10:10:20;;;;;;;5.83;4.33;;;17.00;58.00;;;;;;5052784;28;20469;-86
2022/09/17 10:12:47;;;;;;;5.03;2.93;;;16.70;59.00;;;;;;5037799;28;20526;-85
2022/09/17 10:15:25;;;;;;;4.20;2.70;;;16.40;58.00;;;;;;5022754;28;20554;-89
2022/09/17 10:18:11;;;;;;;2.60;2.13;;;16.20;58.00;;;;;;5054535;28;20436;-87
2022/09/17 10:20:49;;;;;;;4.23;2.63;;;16.20;58.50;;;;;;5052331;28;21007;-88
2022/09/17 10:23:17;;;;;;;8.20;3.80;;;16.40;59.00;;;;;;5011043;28;20459;-88
2022/09/17 10:25:44;;;;;;;5.53;3.47;;;16.60;59.50;;;;;;5043367;28;20460;-88
2022/09/17 10:28:35;;;;;;;7.50;3.50;;;17.00;60.40;;;;;;5053231;28;20472;-87
2022/09/17 10:31:07;;;;;;;6.60;4.40;;;17.60;60.70;;;;;;5053634;28;20465;-87
2022/09/17 10:33:35;;;;;;;11.33;3.93;;;17.70;57.30;;;;;;5021380;28;20466;-88
2022/09/17 10:36:06;;;;;;;8.17;3.60;;;17.40;57.60;;;;;;5034742;28;20468;-86
2022/09/17 10:38:36;;;;;;;6.93;3.90;;;17.30;58.70;;;;;;5019065;28;20448;-88
2022/09/17 10:41:16;;;;;;;7.10;3.77;;;17.30;58.80;;;;;;5056097;28;20488;-87
2022/09/17 10:43:43;;;;;;;6.50;3.90;;;17.60;58.80;;;;;;5036105;28;20451;-87
2022/09/17 10:46:14;;;;;;;4.77;3.50;;;17.80;57.50;;;;;;5027278;28;20450;-87
2022/09/17 10:48:44;;;;;;;7.40;4.83;;;17.90;58.00;;;;;;5037423;28;20476;-87
2022/09/17 10:51:22;;;;;;;7.33;3.23;;;18.00;56.20;;;;;;5052429;28;20458;-87
2022/09/17 10:54:06;;;;;;;12.47;2.97;;;17.50;56.70;;;;;;5049928;28;20465;-86
2022/09/17 10:56:36;;;;;;;5.97;3.27;;;17.10;55.90;;;;;;5034967;28;20867;-87
2022/09/17 10:59:23;;;;;;;12.27;4.30;;;17.00;55.70;;;;;;5027803;28;20444;-86
2022/09/17 11:02:03;;;;;;;7.83;2.70;;;17.00;54.50;;;;;;5051773;28;21016;-87
2022/09/17 11:04:41;;;;;;;2.77;2.17;;;16.70;53.70;;;;;;5050453;28;20444;-86
2022/09/17 11:07:38;;;;;;;9.57;4.47;;;16.50;56.80;;;;;;5035003;28;21255;-87
2022/09/17 11:10:15;;;;;;;4.57;3.30;;;16.80;55.10;;;;;;5042196;28;20469;-88
2022/09/17 11:12:57;;;;;;;3.20;2.17;;;16.90;56.00;;;;;;5037954;28;20519;-87
2022/09/17 11:15:35;;;;;;;5.20;2.60;;;17.30;56.70;;;;;;5024434;28;20464;-88
2022/09/17 11:18:21;;;;;;;2.97;2.00;;;17.60;56.50;;;;;;5052665;28;20455;-87
2022/09/17 11:21:03;;;;;;;8.50;3.10;;;17.80;54.90;;;;;;5046108;28;20464;-87
2022/09/17 11:23:52;;;;;;;5.90;2.97;;;17.70;54.80;;;;;;5041437;28;20446;-88
2022/09/17 11:26:32;;;;;;;4.60;2.93;;;17.60;57.00;;;;;;5054776;28;20575;-89
2022/09/17 11:29:19;;;;;;;5.30;3.20;;;18.10;58.10;;;;;;5020113;28;20495;-88
2022/09/17 11:31:54;;;;;;;6.30;2.70;;;18.50;57.50;;;;;;5022367;28;20472;-88
2022/09/17 11:34:29;;;;;;;4.30;2.33;;;18.40;53.70;;;;;;5051614;28;20441;-87
2022/09/17 11:37:02;;;;;;;4.80;2.80;;;18.30;53.60;;;;;;5035270;28;20453;-88
2022/09/17 11:39:37;;;;;;;4.07;2.10;;;17.90;54.30;;;;;;5036168;28;20568;-88
2022/09/17 11:42:10;;;;;;;5.80;4.10;;;17.80;54.20;;;;;;5032863;28;20999;-88
2022/09/17 11:44:45;;;;;;;2.80;2.60;;;17.90;55.50;;;;;;5042282;28;21948;-88
2022/09/17 11:47:16;;;;;;;7.83;2.80;;;18.30;55.30;;;;;;5027907;28;20453;-88
2022/09/17 11:49:47;;;;;;;5.83;3.07;;;18.50;53.60;;;;;;5051086;28;20477;-87
2022/09/17 11:52:21;;;;;;;3.93;3.30;;;18.60;52.80;;;;;;5034884;28;20476;-88
2022/09/17 11:54:55;;;;;;;4.33;2.70;;;18.60;52.70;;;;;;5034047;28;21033;-88
2022/09/17 11:57:27;;;;;;;3.77;2.20;;;18.80;53.60;;;;;;5049506;28;20804;-87
2022/09/17 12:00:00;;;;;;;4.50;2.20;;;18.40;53.10;;;;;;5032678;28;20445;-87
2022/09/17 12:02:43;;;;;;;5.53;2.53;;;18.10;51.60;;;;;;5031970;28;20464;-88
2022/09/17 12:05:17;;;;;;;10.50;3.00;;;18.10;54.30;;;;;;5035683;28;21259;-87
2022/09/17 12:07:52;;;;;;;4.27;2.70;;;17.80;53.00;;;;;;5052024;28;20452;-87
2022/09/17 12:10:46;;;;;;;4.87;2.60;;;17.90;53.90;;;;;;5034904;28;20476;-87
2022/09/17 12:13:23;;;;;;;2.43;2.17;;;17.90;53.70;;;;;;5051133;28;20452;-89
2022/09/17 12:16:04;;;;;;;4.20;3.20;;;17.90;50.80;;;;;;5018807;28;20429;-87
2022/09/17 12:18:49;;;;;;;5.90;3.63;;;17.90;52.50;;;;;;5050323;28;20444;-86
2022/09/17 12:21:21;;;;;;;7.70;4.70;;;18.00;52.20;;;;;;5050559;28;20476;-88
2022/09/17 12:23:52;;;;;;;7.20;2.63;;;17.80;52.10;;;;;;5051415;28;20452;-88
2022/09/17 12:26:34;;;;;;;6.90;2.53;;;18.10;54.10;;;;;;5050286;28;20445;-87
2022/09/17 12:29:11;;;;;;;3.17;2.30;;;18.60;51.80;;;;;;5009498;28;20476;-88
2022/09/17 12:31:47;;;;;;;3.40;2.63;;;18.80;49.30;;;;;;5032079;28;20520;-87
2022/09/17 12:34:31;;;;;;;2.50;2.10;;;19.00;51.90;;;;;;5035369;28;20706;-87
2022/09/17 12:37:08;;;;;;;2.97;1.60;;;18.90;47.10;;;;;;5051570;28;20449;-88
2022/09/17 12:39:55;;;;;;;2.80;2.00;;;18.70;47.10;;;;;;5034698;28;20457;-89
2022/09/17 12:42:38;;;;;;;8.37;5.60;;;18.30;46.80;;;;;;5052091;28;20468;-88
2022/09/17 12:45:27;;;;;;;6.70;2.67;;;18.40;46.10;;;;;;5033262;28;20448;-88
2022/09/17 12:48:20;;;;;;;2.30;1.80;;;18.60;47.60;;;;;;5049462;28;20483;-87
2022/09/17 12:51:00;;;;;;;5.63;2.10;;;18.70;44.70;;;;;;5026163;28;20444;-86
2022/09/17 12:53:31;;;;;;;2.93;1.63;;;18.20;46.40;;;;;;5033896;28;20456;-91
2022/09/17 12:56:05;;;;;;;6.20;2.60;;;18.20;45.40;;;;;;5044378;28;20988;-89
2022/09/17 12:58:47;;;;;;;3.97;2.00;;;18.40;46.20;;;;;;5025450;28;20444;-89
2022/09/17 13:01:24;;;;;;;3.77;1.60;;;18.60;47.80;;;;;;5056810;28;20466;-88
2022/09/17 13:03:58;;;;;;;4.30;1.93;;;19.10;47.30;;;;;;5035920;28;21151;-88
2022/09/17 13:07:14;;;;;;;4.37;2.10;;;19.60;44.60;;;;;;5038161;28;20576;-88
2022/09/17 13:10:03;;;;;;;4.23;1.70;;;19.40;42.70;;;;;;4972230;28;20460;-88
2022/09/17 13:12:39;;;;;;;3.93;1.90;;;19.20;44.80;;;;;;5022712;28;20456;-88